Portada
METAR-TAF:

METAR-TAF

Aeroports :

Kuala Terengganu, Malàisia

latitud: 05-22-53N, longitud: 103-06-17E, altitud: 6 m

Observació

L'informe es va fer fa 48 minuts, a les 01:00 UTC
Vent 5 kt del Sud-Oest, variant entre Sud/Sud-Oest i Oest
Temperatura 27°C
Humitat 84%
Pressió 1011 hPa
Visibilitat 10 km o més
Escasses núvols a una alçada de 1800 ft

METAR: WMKN 300100Z 23005KT 200V260 9999 FEW018 27/24 Q1011

Hora: 09:48 (01:48 UTC)

Pronòstic

L'informe es va fer fa 2 hores i 48 minuts, a les 23:00 UTC
Pronòstic vàlid del 30 a les 00 UTC al 31 a les 00 UTC
Vent 3 kt amb direcció variable
Visibilitat 10 km o més
Escasses núvols a una alçada de 1800 ft
Evolucionant progressivament
l' 30 a les 00 UTC al 30 a les 01 UTC
Vent 5 kt del Est/Nord-Est
Evolucionant progressivament
l' 30 a les 11 UTC al 30 a les 12 UTC
Vent 3 kt amb direcció variable
Escasses núvols a una alçada de 2200 ft

TAF: WMKN 292300Z 3000/3100 VRB03KT 9999 FEW018 BECMG 3000/3001 07005KT BECMG 3011/3012 VRB03KT FEW022

Observacions i pronòstics meteorològics de més de 4000 aeroports (METAR i TAF).

Les estacions disponibles són els punts grocs i vermells al mapa.

Posi el ratolí al punt desitjat per veure el nom de l'estació.

Feu clic per veure les observacions i els pronòstics meteorològics.

Per canviar el mapa: feu clic els botons verds amb una creu de color negre per apropar; al botó verd amb un guió per allunyar la imatge; o en les fletxes verdes per a mapes adjacents.


METAR-TAF: